createdAt,value
2017-09-01T00:00:01.635Z,91.60
2017-09-01T00:02:30.068Z,92.21
2017-09-01T00:04:58.457Z,92.33
2017-09-01T00:07:26.851Z,91.21
2017-09-01T00:09:55.185Z,91.08
2017-09-01T00:12:23.637Z,91.17
2017-09-01T00:14:52.018Z,91.45
2017-09-01T00:17:20.367Z,91.37
2017-09-01T00:19:48.706Z,91.21
2017-09-01T00:22:17.073Z,91.35
2017-09-01T00:24:45.496Z,91.99
2017-09-01T00:27:13.878Z,91.74
2017-09-01T00:29:42.271Z,91.75
2017-09-01T00:32:10.658Z,91.84
2017-09-01T00:34:39.031Z,92.30
2017-09-01T00:37:07.403Z,93.57
2017-09-01T00:39:35.759Z,92.20
2017-09-01T00:42:04.156Z,91.71
2017-09-01T00:44:32.482Z,91.70
2017-09-01T00:47:00.832Z,91.88
2017-09-01T00:49:29.207Z,92.69
2017-09-01T00:51:57.586Z,92.92
2017-09-01T00:54:25.974Z,94.90
2017-09-01T00:56:54.310Z,92.77
2017-09-01T00:59:22.654Z,92.74
2017-09-01T01:01:51.079Z,93.03
2017-09-01T01:04:19.537Z,94.01
2017-09-01T01:06:47.936Z,92.49
2017-09-01T01:09:16.332Z,92.29
2017-09-01T01:11:44.666Z,92.39
2017-09-01T01:14:13.015Z,92.79
2017-09-01T01:16:41.494Z,93.89
2017-09-01T01:19:09.834Z,92.85
2017-09-01T01:21:38.170Z,92.36
2017-09-01T01:24:06.514Z,91.18
2017-09-01T01:26:34.967Z,91.65
2017-09-01T01:29:03.355Z,92.17
2017-09-01T01:31:31.751Z,92.43
2017-09-01T01:34:00.146Z,92.76
2017-09-01T01:36:28.485Z,93.35
2017-09-01T01:38:56.830Z,93.21
2017-09-01T01:41:25.310Z,93.37
2017-09-01T01:43:53.698Z,93.81
2017-09-01T01:46:22.095Z,94.45
2017-09-01T01:48:50.435Z,93.23
2017-09-01T01:51:18.882Z,92.19
2017-09-01T01:53:47.251Z,92.45
2017-09-01T01:56:15.670Z,92.84
2017-09-01T01:58:44.027Z,94.08
2017-09-01T02:01:12.376Z,93.71
2017-09-01T02:03:40.841Z,92.27
2017-09-01T02:06:09.235Z,92.02
2017-09-01T02:08:37.643Z,90.50
2017-09-01T02:11:06.035Z,90.79
2017-09-01T02:13:34.396Z,91.30
2017-09-01T02:16:02.736Z,92.04
2017-09-01T02:18:31.177Z,92.36
2017-09-01T02:20:59.548Z,92.90
2017-09-01T02:23:27.928Z,94.14
2017-09-01T02:25:56.355Z,92.19
2017-09-01T02:28:24.718Z,91.52
2017-09-01T02:30:53.067Z,92.49
2017-09-01T02:33:21.422Z,94.33
2017-09-01T02:35:50.165Z,92.36
2017-09-01T02:38:18.673Z,92.39
2017-09-01T02:40:47.127Z,92.48
2017-09-01T02:43:15.507Z,92.99
2017-09-01T02:45:43.890Z,93.53
2017-09-01T02:48:12.290Z,93.50
2017-09-01T02:50:40.680Z,93.30
2017-09-01T02:53:09.055Z,93.52
2017-09-01T02:55:37.392Z,93.83
2017-09-01T02:58:05.770Z,94.12
2017-09-01T03:00:34.158Z,93.79
2017-09-01T03:03:02.494Z,93.84
2017-09-01T03:05:30.922Z,93.71
2017-09-01T03:07:59.310Z,94.21
2017-09-01T03:10:27.659Z,93.74
2017-09-01T03:12:56.089Z,92.38
2017-09-01T03:15:24.522Z,92.32
2017-09-01T03:17:52.889Z,91.03
2017-09-01T03:20:21.271Z,91.33
2017-09-01T03:22:49.662Z,92.09
2017-09-01T03:25:18.049Z,91.30
2017-09-01T03:27:46.394Z,90.81
2017-09-01T03:30:14.830Z,90.16
2017-09-01T03:32:43.185Z,92.17
2017-09-01T03:35:11.523Z,91.49
2017-09-01T03:37:39.930Z,91.99
2017-09-01T03:40:08.294Z,93.97
2017-09-01T03:42:36.638Z,92.85
2017-09-01T03:45:04.983Z,91.83
2017-09-01T03:47:33.379Z,91.93
2017-09-01T03:50:01.766Z,90.68
2017-09-01T03:52:30.126Z,91.01
2017-09-01T03:54:58.462Z,91.88
2017-09-01T03:57:26.830Z,91.89
2017-09-01T03:59:55.170Z,92.54
2017-09-01T04:02:23.614Z,91.45
2017-09-01T04:04:52.006Z,91.70
2017-09-01T04:07:20.378Z,92.19
2017-09-01T04:09:48.789Z,93.76
2017-09-01T04:12:17.162Z,93.46
2017-09-01T04:14:45.531Z,91.73
2017-09-01T04:17:13.898Z,91.50
2017-09-01T04:19:42.234Z,91.78
2017-09-01T04:22:10.751Z,91.90
2017-09-01T04:24:39.139Z,92.92
2017-09-01T04:27:07.525Z,92.71
2017-09-01T04:29:35.860Z,91.84
2017-09-01T04:32:04.197Z,91.66
2017-09-01T04:34:32.547Z,92.08
2017-09-01T04:37:00.986Z,92.90
2017-09-01T04:39:29.365Z,93.18
2017-09-01T04:41:57.715Z,91.97
2017-09-01T04:44:26.076Z,92.23
2017-09-01T04:46:54.414Z,92.30
2017-09-01T04:49:22.853Z,92.97
2017-09-01T04:51:51.182Z,92.93
2017-09-01T04:54:19.626Z,92.15
2017-09-01T04:56:48.014Z,92.39
2017-09-01T04:59:16.415Z,91.30
2017-09-01T05:01:44.787Z,91.75
2017-09-01T05:04:13.154Z,91.58
2017-09-01T05:06:41.616Z,91.96
2017-09-01T05:09:09.948Z,91.82
2017-09-01T05:11:38.298Z,90.01
2017-09-01T05:14:06.726Z,90.19
2017-09-01T05:16:35.250Z,91.48
2017-09-01T05:19:03.642Z,90.30
2017-09-01T05:21:32.042Z,90.88
2017-09-01T05:24:00.423Z,89.56
2017-09-01T05:26:28.806Z,92.11
2017-09-01T05:28:57.220Z,90.75
2017-09-01T05:31:25.621Z,90.03
2017-09-01T05:33:54.024Z,89.85
2017-09-01T05:36:22.382Z,89.01
2017-09-01T05:38:50.727Z,88.98
2017-09-01T05:41:19.196Z,89.74
2017-09-01T05:43:47.659Z,89.83
2017-09-01T05:46:16.042Z,89.79
2017-09-01T05:48:44.375Z,89.73
2017-09-01T05:51:12.759Z,89.72
2017-09-01T05:53:41.222Z,90.53
2017-09-01T05:56:09.562Z,89.65
2017-09-01T05:58:37.907Z,88.96
2017-09-01T06:01:06.247Z,88.86
2017-09-01T06:03:34.682Z,87.82
2017-09-01T06:06:03.022Z,87.91
2017-09-01T06:08:31.363Z,87.67
2017-09-01T06:10:59.702Z,87.95
2017-09-01T06:13:28.076Z,89.01
2017-09-01T06:15:56.410Z,87.58
2017-09-01T06:18:25.243Z,87.65
2017-09-01T06:20:53.580Z,79.71
2017-09-01T06:23:21.947Z,77.21
2017-09-01T06:25:50.282Z,72.33
2017-09-01T06:28:18.627Z,68.71
2017-09-01T06:30:46.985Z,64.75
2017-09-01T06:33:15.382Z,61.98
2017-09-01T06:35:43.766Z,61.66
2017-09-01T06:38:12.097Z,62.80
2017-09-01T06:40:40.455Z,63.88
2017-09-01T06:43:08.817Z,62.56
2017-09-01T06:45:37.232Z,64.41
2017-09-01T06:48:05.635Z,61.82
2017-09-01T06:50:34.007Z,63.02
2017-09-01T06:53:02.401Z,60.23
2017-09-01T06:55:30.745Z,57.58
2017-09-01T06:57:59.119Z,55.06
2017-09-01T07:00:27.478Z,55.51
2017-09-01T07:02:55.869Z,54.96
2017-09-01T07:05:24.233Z,56.47
2017-09-01T07:07:52.646Z,53.88
2017-09-01T07:10:21.001Z,49.89
2017-09-01T07:12:49.439Z,49.13
2017-09-01T07:15:17.797Z,46.63
2017-09-01T07:17:46.135Z,44.96
2017-09-01T07:20:14.641Z,43.54
2017-09-01T07:22:43.004Z,44.58
2017-09-01T07:25:11.339Z,43.63
2017-09-01T07:27:39.781Z,49.44
2017-09-01T07:30:08.114Z,46.75
2017-09-01T07:32:36.458Z,46.72
2017-09-01T07:35:04.823Z,44.87
2017-09-01T07:37:33.168Z,46.43
2017-09-01T07:40:01.531Z,47.73
2017-09-01T07:42:29.861Z,42.78
2017-09-01T07:44:58.222Z,41.79
2017-09-01T07:47:26.557Z,44.84
2017-09-01T07:49:54.899Z,46.43
2017-09-01T07:52:23.253Z,48.99
2017-09-01T07:54:51.586Z,47.68
2017-09-01T07:57:19.961Z,46.11
2017-09-01T07:59:48.359Z,44.24
2017-09-01T08:02:16.694Z,42.74
2017-09-01T08:04:45.031Z,41.88
2017-09-01T08:07:13.442Z,40.90
2017-09-01T08:09:41.825Z,41.83
2017-09-01T08:12:10.215Z,41.28
2017-09-01T08:14:38.541Z,42.64
2017-09-01T08:17:06.923Z,40.60
2017-09-01T08:19:35.307Z,39.45
2017-09-01T08:22:03.639Z,36.35
2017-09-01T08:24:31.997Z,35.33
2017-09-01T08:27:00.324Z,32.33
2017-09-01T08:29:28.661Z,28.42
2017-09-01T08:31:56.995Z,32.33
2017-09-01T08:34:25.431Z,28.29
2017-09-01T08:36:53.761Z,30.39
2017-09-01T08:39:22.117Z,28.93
2017-09-01T08:41:50.455Z,30.28
2017-09-01T08:44:18.889Z,32.39
2017-09-01T08:46:47.283Z,29.07
2017-09-01T08:49:15.612Z,28.67
2017-09-01T08:51:44.067Z,28.19
2017-09-01T08:54:12.675Z,27.47
2017-09-01T08:56:41.155Z,28.14
2017-09-01T08:59:09.502Z,32.58
2017-09-01T09:01:37.937Z,33.30
2017-09-01T09:04:06.332Z,37.36
2017-09-01T09:06:34.722Z,36.38
2017-09-01T09:09:03.058Z,33.26
2017-09-01T09:11:31.427Z,35.51
2017-09-01T09:13:59.765Z,33.40
2017-09-01T09:16:28.190Z,31.41
2017-09-01T09:18:56.576Z,31.50
2017-09-01T09:21:24.919Z,32.30
2017-09-01T09:23:53.278Z,32.95
2017-09-01T09:26:21.635Z,32.39
2017-09-01T09:28:50.141Z,31.92
2017-09-01T09:31:18.482Z,32.19
2017-09-01T09:33:46.815Z,33.32
2017-09-01T09:36:15.242Z,33.40
2017-09-01T09:38:43.633Z,33.03
2017-09-01T09:41:12.007Z,32.35
2017-09-01T09:43:40.382Z,35.78
2017-09-01T09:46:08.745Z,36.70
2017-09-01T09:48:37.082Z,35.62
2017-09-01T09:51:05.425Z,32.35
2017-09-01T09:53:33.777Z,32.27
2017-09-01T09:56:02.363Z,33.58
2017-09-01T09:58:30.735Z,33.87
2017-09-01T10:00:59.082Z,33.42
2017-09-01T10:03:27.414Z,32.49
2017-09-01T10:05:55.754Z,31.00
2017-09-01T10:08:24.099Z,31.94
2017-09-01T10:10:52.475Z,31.78
2017-09-01T10:13:20.813Z,32.89
2017-09-01T10:15:49.176Z,33.67
2017-09-01T10:18:17.544Z,34.57
2017-09-01T10:20:45.907Z,35.79
2017-09-01T10:23:14.260Z,37.22
2017-09-01T10:25:42.577Z,36.02
2017-09-01T10:28:10.943Z,38.25
2017-09-01T10:30:39.282Z,35.93
2017-09-01T10:33:07.614Z,35.28
2017-09-01T10:35:35.970Z,34.44
2017-09-01T10:38:04.299Z,37.46
2017-09-01T10:40:32.662Z,36.42
2017-09-01T10:43:01.398Z,36.88
2017-09-01T10:45:29.758Z,36.07
2017-09-01T10:48:09.886Z,34.90
2017-09-01T10:50:49.759Z,35.14
2017-09-01T10:53:29.707Z,35.96
2017-09-01T10:56:09.640Z,38.35
2017-09-01T10:58:38.006Z,37.40
2017-09-01T11:01:06.339Z,37.55
2017-09-01T11:03:34.711Z,38.84
2017-09-01T11:06:03.074Z,40.65
2017-09-01T11:08:31.440Z,40.24
2017-09-01T11:10:59.779Z,40.93
2017-09-01T11:13:28.155Z,36.46
2017-09-01T11:15:56.490Z,33.95
2017-09-01T11:18:24.843Z,36.60
2017-09-01T11:21:07.422Z,36.28
2017-09-01T11:23:41.236Z,37.90
2017-09-01T11:26:09.565Z,38.90
2017-09-01T11:28:37.899Z,39.28
2017-09-01T11:31:06.274Z,41.67
2017-09-01T11:33:34.603Z,43.67
2017-09-01T11:36:02.935Z,43.86
2017-09-01T11:38:31.278Z,43.56
2017-09-01T11:40:59.615Z,42.72
2017-09-01T11:43:28.375Z,43.84
2017-09-01T11:45:56.706Z,43.16
2017-09-01T11:48:25.029Z,41.21
2017-09-01T11:50:53.382Z,40.67
2017-09-01T11:53:21.768Z,39.93
2017-09-01T11:55:50.098Z,40.33
2017-09-01T11:58:18.439Z,39.87
2017-09-01T12:00:46.774Z,40.78
2017-09-01T12:03:15.101Z,39.59
2017-09-01T12:05:43.458Z,39.72
2017-09-01T12:08:11.786Z,42.00
2017-09-01T12:10:40.118Z,40.43
2017-09-01T12:13:08.458Z,41.85
2017-09-01T12:15:37.083Z,42.20
2017-09-01T12:18:05.414Z,42.83
2017-09-01T12:20:33.780Z,41.35
2017-09-01T12:23:02.123Z,42.70
2017-09-01T12:25:30.462Z,42.89
2017-09-01T12:27:58.834Z,40.88
2017-09-01T12:30:27.174Z,42.11
2017-09-01T12:32:55.565Z,41.94
2017-09-01T12:35:23.910Z,39.70
2017-09-01T12:37:52.259Z,40.85
2017-09-01T12:40:20.598Z,41.51
2017-09-01T12:42:48.936Z,40.59
2017-09-01T12:45:17.278Z,40.42
2017-09-01T12:47:45.640Z,42.82
2017-09-01T12:50:14.005Z,40.36
2017-09-01T12:52:42.334Z,40.62
2017-09-01T12:55:10.670Z,40.26
2017-09-01T12:57:39.034Z,41.21
2017-09-01T13:00:07.376Z,39.37
2017-09-01T13:02:35.738Z,41.21
2017-09-01T13:05:04.075Z,43.49
2017-09-01T13:07:32.407Z,42.35
2017-09-01T13:10:00.766Z,43.62
2017-09-01T13:12:29.102Z,44.32
2017-09-01T13:14:57.445Z,43.77
2017-09-01T13:17:25.810Z,45.67
2017-09-01T13:19:54.142Z,45.32
2017-09-01T13:22:22.518Z,47.56
2017-09-01T13:24:50.864Z,47.14
2017-09-01T13:27:19.198Z,47.73
2017-09-01T13:29:47.564Z,48.68
2017-09-01T13:32:15.914Z,48.91
2017-09-01T13:34:44.238Z,50.38
2017-09-01T13:37:12.583Z,50.28
2017-09-01T13:39:40.951Z,49.99
2017-09-01T13:42:09.284Z,47.90
2017-09-01T13:44:37.617Z,49.41
2017-09-01T13:47:05.963Z,48.87
2017-09-01T13:49:34.294Z,48.92
2017-09-01T13:52:02.678Z,49.27
2017-09-01T13:54:31.006Z,49.56
2017-09-01T13:56:59.375Z,49.16
2017-09-01T13:59:27.714Z,49.01
2017-09-01T14:01:56.047Z,51.61
2017-09-01T14:04:24.407Z,52.51
2017-09-01T14:06:52.762Z,51.65
2017-09-01T14:09:21.119Z,51.28
2017-09-01T14:11:49.463Z,50.98
2017-09-01T14:14:17.787Z,51.09
2017-09-01T14:16:46.118Z,51.52
2017-09-01T14:19:14.462Z,50.28
2017-09-01T14:21:42.831Z,51.70
2017-09-01T14:24:11.175Z,53.16
2017-09-01T14:26:39.502Z,51.35
2017-09-01T14:29:07.838Z,51.40
2017-09-01T14:31:36.915Z,52.51
2017-09-01T14:34:05.246Z,52.66
2017-09-01T14:36:33.586Z,53.27
2017-09-01T14:39:02.050Z,52.62
2017-09-01T14:41:30.387Z,54.89
2017-09-01T14:43:58.732Z,52.72
2017-09-01T14:46:27.062Z,53.10
2017-09-01T14:48:55.456Z,52.71
2017-09-01T14:51:23.795Z,53.47
2017-09-01T14:53:52.128Z,54.22
2017-09-01T14:56:20.508Z,53.93
2017-09-01T14:58:48.847Z,54.88
2017-09-01T15:01:17.514Z,54.53
2017-09-01T15:03:45.855Z,55.74
2017-09-01T15:06:14.217Z,56.71
2017-09-01T15:08:42.567Z,57.57
2017-09-01T15:11:10.998Z,57.67
2017-09-01T15:13:39.366Z,58.29
2017-09-01T15:16:07.708Z,58.16
2017-09-01T15:18:36.046Z,57.57
2017-09-01T15:21:04.383Z,57.87
2017-09-01T15:23:32.725Z,58.56
2017-09-01T15:26:01.082Z,57.29
2017-09-01T15:28:29.428Z,57.22
2017-09-01T15:30:57.790Z,57.10
2017-09-01T15:33:26.123Z,57.60
2017-09-01T15:35:54.457Z,59.32
2017-09-01T15:38:22.822Z,59.30
2017-09-01T15:40:51.158Z,57.44
2017-09-01T15:43:19.499Z,58.13
2017-09-01T15:45:47.832Z,58.94
2017-09-01T15:48:16.162Z,58.11
2017-09-01T15:50:44.534Z,58.51
2017-09-01T15:53:12.867Z,57.88
2017-09-01T15:55:41.235Z,58.72
2017-09-01T15:58:09.575Z,58.87
2017-09-01T16:00:37.905Z,58.54
2017-09-01T16:03:06.239Z,58.52
2017-09-01T16:05:34.586Z,58.37
2017-09-01T16:08:03.058Z,59.40
2017-09-01T16:10:31.407Z,60.59
2017-09-01T16:12:59.751Z,60.29
2017-09-01T16:15:28.092Z,60.49
2017-09-01T16:17:56.427Z,60.44
2017-09-01T16:20:24.765Z,61.11
2017-09-01T16:22:53.118Z,61.43
2017-09-01T16:25:21.455Z,61.97
2017-09-01T16:27:49.799Z,61.98
2017-09-01T16:30:18.138Z,61.59
2017-09-01T16:32:46.528Z,61.12
2017-09-01T16:35:14.858Z,61.88
2017-09-01T16:37:43.204Z,61.76
2017-09-01T16:40:11.542Z,62.15
2017-09-01T16:42:39.878Z,63.99
2017-09-01T16:45:08.219Z,64.84
2017-09-01T16:47:36.554Z,65.88
2017-09-01T16:50:04.923Z,67.51
2017-09-01T16:52:33.258Z,68.27
2017-09-01T16:55:01.590Z,68.80
2017-09-01T16:57:29.934Z,69.89
2017-09-01T16:59:58.294Z,69.87
2017-09-01T17:02:26.683Z,70.07
2017-09-01T17:04:55.014Z,69.27
2017-09-01T17:07:23.355Z,70.43
2017-09-01T17:09:51.699Z,70.41
2017-09-01T17:12:20.058Z,70.73
2017-09-01T17:14:48.430Z,69.42
2017-09-01T17:17:16.773Z,69.65
2017-09-01T17:19:45.138Z,71.11
2017-09-01T17:22:13.485Z,72.58
2017-09-01T17:24:41.883Z,71.60
2017-09-01T17:27:10.245Z,72.13
2017-09-01T17:29:38.615Z,74.37
2017-09-01T17:32:06.953Z,75.57
2017-09-01T17:34:35.289Z,77.87
2017-09-01T17:37:03.635Z,78.84
2017-09-01T17:39:31.981Z,79.14
2017-09-01T17:42:00.320Z,78.37
2017-09-01T17:44:28.666Z,77.72
2017-09-01T17:46:57.003Z,79.44
2017-09-01T17:49:25.387Z,78.30
2017-09-01T17:51:53.726Z,78.34
2017-09-01T17:54:22.089Z,78.39
2017-09-01T17:56:50.480Z,78.01
2017-09-01T17:59:18.862Z,79.06
2017-09-01T18:01:47.206Z,79.32
2017-09-01T18:04:15.637Z,79.79
2017-09-01T18:06:44.002Z,79.71
2017-09-01T18:09:12.430Z,80.24
2017-09-01T18:11:40.822Z,81.15
2017-09-01T18:14:09.215Z,80.95
2017-09-01T18:16:37.555Z,81.86
2017-09-01T18:19:06.005Z,82.46
2017-09-01T18:21:34.383Z,82.79
2017-09-01T18:24:02.729Z,82.56
2017-09-01T18:26:31.132Z,82.65
2017-09-01T18:28:59.553Z,83.32
2017-09-01T18:31:27.917Z,83.53
2017-09-01T18:33:56.259Z,83.95
2017-09-01T18:36:24.635Z,84.45
2017-09-01T18:38:52.969Z,84.27
2017-09-01T18:41:21.315Z,84.34
2017-09-01T18:43:49.687Z,83.99
2017-09-01T18:46:18.038Z,84.06
2017-09-01T18:48:46.387Z,83.87
2017-09-01T18:51:14.779Z,83.20
2017-09-01T18:53:43.116Z,82.67
2017-09-01T18:56:11.576Z,82.98
2017-09-01T18:58:39.902Z,82.08
2017-09-01T19:01:08.575Z,82.46
2017-09-01T19:03:36.906Z,81.18
2017-09-01T19:06:05.246Z,81.62
2017-09-01T19:08:33.619Z,81.75
2017-09-01T19:11:01.979Z,80.83
2017-09-01T19:13:30.390Z,81.51
2017-09-01T19:15:58.731Z,80.74
2017-09-01T19:18:27.106Z,81.16
2017-09-01T19:20:55.474Z,81.45
2017-09-01T19:23:23.850Z,81.76
2017-09-01T19:25:53.347Z,81.71
2017-09-01T19:28:21.762Z,81.89
2017-09-01T19:30:50.193Z,81.77
2017-09-01T19:33:18.526Z,82.21
2017-09-01T19:35:46.874Z,81.81
2017-09-01T19:38:15.333Z,82.05
2017-09-01T19:40:43.674Z,82.29
2017-09-01T19:43:12.109Z,82.88
2017-09-01T19:45:40.451Z,83.08
2017-09-01T19:48:08.795Z,82.67
2017-09-01T19:50:37.322Z,82.55
2017-09-01T19:53:05.720Z,82.85
2017-09-01T19:55:34.054Z,82.68
2017-09-01T19:58:02.394Z,82.20
2017-09-01T20:00:30.754Z,82.57
2017-09-01T20:02:59.174Z,82.48
2017-09-01T20:05:27.536Z,82.54
2017-09-01T20:07:56.249Z,82.82
2017-09-01T20:10:24.726Z,83.98
2017-09-01T20:12:53.075Z,84.15
2017-09-01T20:15:21.452Z,84.04
2017-09-01T20:17:49.830Z,84.43
2017-09-01T20:20:18.222Z,84.86
2017-09-01T20:22:46.598Z,85.64
2017-09-01T20:25:17.972Z,85.93
2017-09-01T20:27:49.275Z,85.52
2017-09-01T20:30:20.388Z,85.19
2017-09-01T20:32:52.023Z,84.54
2017-09-01T20:35:22.466Z,84.63
2017-09-01T20:37:56.706Z,84.75
2017-09-01T20:40:28.618Z,84.74
2017-09-01T20:43:08.871Z,84.49
2017-09-01T20:45:42.662Z,84.16
2017-09-01T20:48:15.997Z,83.89
2017-09-01T20:50:46.928Z,83.85
2017-09-01T20:53:19.129Z,85.01
2017-09-01T20:55:51.004Z,85.12
2017-09-01T20:58:21.241Z,85.82
2017-09-01T21:00:53.385Z,85.63
2017-09-01T21:03:26.803Z,86.23
2017-09-01T21:05:58.945Z,86.19
2017-09-01T21:08:31.630Z,86.04
2017-09-01T21:11:09.048Z,86.12
2017-09-01T21:13:46.556Z,86.40
2017-09-01T21:16:17.883Z,87.11
2017-09-01T21:18:50.273Z,86.00
2017-09-01T21:21:22.535Z,85.29
2017-09-01T21:23:55.709Z,86.21
2017-09-01T21:26:31.681Z,86.37
2017-09-01T21:29:00.946Z,85.76
2017-09-01T21:31:29.387Z,85.46
2017-09-01T21:33:59.219Z,86.27
2017-09-01T21:36:28.720Z,86.40
2017-09-01T21:38:59.868Z,87.17
2017-09-01T21:41:31.483Z,87.65
2017-09-01T21:44:00.915Z,87.70
2017-09-01T21:46:29.294Z,87.28
2017-09-01T21:48:58.966Z,87.36
2017-09-01T21:51:27.669Z,87.17
2017-09-01T21:53:56.010Z,87.75
2017-09-01T21:56:24.491Z,89.32
2017-09-01T21:58:53.666Z,88.59
2017-09-01T22:01:32.907Z,88.71
2017-09-01T22:04:01.827Z,88.54
2017-09-01T22:06:30.215Z,89.04
2017-09-01T22:08:58.607Z,89.70
2017-09-01T22:11:26.950Z,89.74
2017-09-01T22:13:55.287Z,89.52
2017-09-01T22:16:24.299Z,89.96
2017-09-01T22:18:52.630Z,90.99
2017-09-01T22:21:21.203Z,90.59
2017-09-01T22:23:49.665Z,90.81
2017-09-01T22:26:18.057Z,90.82
2017-09-01T22:28:46.415Z,90.95
2017-09-01T22:31:15.248Z,91.21
2017-09-01T22:33:44.733Z,90.48
2017-09-01T22:36:14.014Z,90.47
2017-09-01T22:38:42.475Z,89.17
2017-09-01T22:41:10.824Z,88.52
2017-09-01T22:43:39.259Z,88.21
2017-09-01T22:46:07.607Z,88.92
2017-09-01T22:48:35.945Z,89.00
2017-09-01T22:51:04.421Z,88.46
2017-09-01T22:53:32.767Z,88.82
2017-09-01T22:56:01.211Z,89.38
2017-09-01T22:58:29.558Z,90.51
2017-09-01T23:00:57.996Z,90.20
2017-09-01T23:03:26.423Z,90.91
2017-09-01T23:05:54.769Z,89.37
2017-09-01T23:08:23.178Z,89.63
2017-09-01T23:10:51.555Z,89.46
2017-09-01T23:13:19.906Z,89.85
2017-09-01T23:15:48.341Z,89.90
2017-09-01T23:18:16.714Z,89.42
2017-09-01T23:20:45.126Z,89.79
2017-09-01T23:23:13.514Z,90.21
2017-09-01T23:25:41.919Z,90.65
2017-09-01T23:28:10.258Z,90.47
2017-09-01T23:30:38.694Z,90.69
2017-09-01T23:33:07.046Z,90.86
2017-09-01T23:35:35.473Z,90.69
2017-09-01T23:38:03.809Z,90.19
2017-09-01T23:40:32.167Z,90.67
2017-09-01T23:43:00.551Z,89.62
2017-09-01T23:45:28.899Z,90.42
2017-09-01T23:47:57.257Z,88.55
2017-09-01T23:50:25.715Z,89.98
2017-09-01T23:52:54.114Z,89.71
2017-09-01T23:55:22.470Z,88.82
2017-09-01T23:57:50.895Z,90.31
